メインページ
METAR-TAF:

METAR-TAF

空港 :

カーブル, アフガニスタン

カーブル国際空港

緯度: 34-38N, 経度: 069-12E, 海抜: 1789m

現時点の気象観測

当レポートは43分前の15:50(UTC)に作成
北/北東の風 10kt、最大32ktの突風を伴う、北西から東/南東の間で変化する
気温 29°C
湿度 8%
気圧 1012 hPa
視程10km以上
1,500メートル以下は雲なし、積乱雲なし

METAR: OAKB 221550Z 03010G32KT 320V110 CAVOK 29/M08 Q1012 NOSIG RMK BLU BLU

時間: 21:03 (16:33 UTC)

予報

当レポートは5時間28分前の11:05(UTC)に作成
予報は22日の 12時(UTC)から 23日の 12時(UTC)まで有効
の風 15kt、最大35ktの突風を伴う
視程10km以上
1,500メートル以下は雲なし、積乱雲なし
22日の 12時(UTC)から 22日の 16時(UTC)まで一時的に
の風 20kt、最大45ktの突風を伴う
22日の 16時(UTC)から 22日の 18時(UTC)まで徐々に
の風 12kt、最大25ktの突風を伴う
22日の 18時(UTC)から 22日の 20時(UTC)まで徐々に
北/北西の風 12kt
22日の 20時(UTC)から 22日の 22時(UTC)まで徐々に
変向風 2kt
23日の 04時(UTC)から 23日の 06時(UTC)まで徐々に
の風 15kt、最大25ktの突風を伴う

TAF: OAKB 221105Z 2212/2312 35015G35KT CAVOK TEMPO 2212/2216 36020G45KT BECMG 2216/2218 35012G25KT BECMG 2218/2220 33012KT BECMG 2220/2222 VRB02KT BECMG 2304/2306 36015G25KT

4,000以上の空港の気象観測と天気予報(METAR報とTAF報)

利用可能な観測所は地図上に黄色い丸と赤い丸で示す。

丸の上にカーソルを重ねると観測所名を参照できる。

次にクリックすると気象観測と天気予報を参照できる。

マップの切り替え:黒色「×」印の緑ボタンをクリックして拡大、「-」印の緑ボタンをクリックして縮小、緑色の三角印をクリックして隣りの地図に切り替え


METAR-TAF: